地図

経路データ

SID SEASON NUMBER BASIN SUBBASIN NAME ISO_TIME NATURE LAT LON WMO_WIND WMO_PRES WMO_AGENCY TRACK_TYPE DIST2LAND LANDFALL IFLAG USA_AGENCY USA_ATCF_ID USA_LAT USA_LON USA_RECORD USA_STATUS USA_WIND USA_PRES USA_SSHS USA_R34_NE USA_R34_SE USA_R34_SW USA_R34_NW USA_R50_NE USA_R50_SE USA_R50_SW USA_R50_NW USA_R64_NE USA_R64_SE USA_R64_SW USA_R64_NW USA_POCI USA_ROCI USA_RMW USA_EYE TOKYO_LAT TOKYO_LON TOKYO_GRADE TOKYO_WIND TOKYO_PRES TOKYO_R50_DIR TOKYO_R50_LONG TOKYO_R50_SHORT TOKYO_R30_DIR TOKYO_R30_LONG TOKYO_R30_SHORT TOKYO_LAND CMA_LAT CMA_LON CMA_CAT CMA_WIND CMA_PRES HKO_LAT HKO_LON HKO_CAT HKO_WIND HKO_PRES NEWDELHI_LAT NEWDELHI_LON NEWDELHI_GRADE NEWDELHI_WIND NEWDELHI_PRES NEWDELHI_CI NEWDELHI_DP NEWDELHI_POCI REUNION_LAT REUNION_LON REUNION_TYPE REUNION_WIND REUNION_PRES REUNION_TNUM REUNION_CI REUNION_RMW REUNION_R34_NE REUNION_R34_SE REUNION_R34_SW REUNION_R34_NW REUNION_R50_NE REUNION_R50_SE REUNION_R50_SW REUNION_R50_NW REUNION_R64_NE REUNION_R64_SE REUNION_R64_SW REUNION_R64_NW BOM_LAT BOM_LON BOM_TYPE BOM_WIND BOM_PRES BOM_TNUM BOM_CI BOM_RMW BOM_R34_NE BOM_R34_SE BOM_R34_SW BOM_R34_NW BOM_R50_NE BOM_R50_SE BOM_R50_SW BOM_R50_NW BOM_R64_NE BOM_R64_SE BOM_R64_SW BOM_R64_NW BOM_ROCI BOM_POCI BOM_EYE BOM_POS_METHOD BOM_PRES_METHOD NADI_LAT NADI_LON NADI_CAT NADI_WIND NADI_PRES WELLINGTON_LAT WELLINGTON_LON WELLINGTON_WIND WELLINGTON_PRES DS824_LAT DS824_LON DS824_STAGE DS824_WIND DS824_PRES TD9636_LAT TD9636_LON TD9636_STAGE TD9636_WIND TD9636_PRES TD9635_LAT TD9635_LON TD9635_WIND TD9635_PRES TD9635_ROCI NEUMANN_LAT NEUMANN_LON NEUMANN_CLASS NEUMANN_WIND NEUMANN_PRES MLC_LAT MLC_LON MLC_CLASS MLC_WIND MLC_PRES USA_GUST BOM_GUST BOM_GUST_PER REUNION_GUST REUNION_GUST_PER USA_SEAHGT USA_SEARAD_NE USA_SEARAD_SE USA_SEARAD_SW USA_SEARAD_NW STORM_SPEED STORM_DIR
1949211N20143 1949 49 WP MM NOT_NAMED 1949-07-29 18:00:00 TS 19.8000 142.900 main 1673 1642 __O___________ -1 19.8000 142.900 0 1006 7 0
1949211N20143 1949 49 WP MM NOT_NAMED 1949-07-29 21:00:00 TS 20.1500 142.900 main 1632 1601 __P___________ -1 20.1500 142.900 0 1006 7 0
1949211N20143 1949 49 WP MM NOT_NAMED 1949-07-30 00:00:00 TS 20.5000 142.900 main 1601 1571 __O___________ -1 20.5000 142.900 0 1006 7 0
1949211N20143 1949 49 WP MM NOT_NAMED 1949-07-30 03:00:00 TS 20.8500 142.900 main 1561 1530 __P___________ -1 20.8500 142.900 0 1005 7 0
1949211N20143 1949 49 WP MM NOT_NAMED 1949-07-30 06:00:00 TS 21.2000 142.900 main 1530 1500 __O___________ -1 21.2000 142.900 0 1005 7 0
1949211N20143 1949 49 WP MM NOT_NAMED 1949-07-30 09:00:00 TS 21.5500 142.900 main 1490 1460 __P___________ -1 21.5500 142.900 0 1004 7 0
1949211N20143 1949 49 WP MM NOT_NAMED 1949-07-30 12:00:00 TS 21.9000 142.900 main 1460 1430 __O___________ -1 21.9000 142.900 0 1004 7 0
1949211N20143 1949 49 WP MM NOT_NAMED 1949-07-30 15:00:00 TS 22.2425 142.900 main 1430 1391 __P___________ -1 22.2425 142.900 0 1004 7 0
1949211N20143 1949 49 WP MM NOT_NAMED 1949-07-30 18:00:00 TS 22.6000 142.900 main 1391 1352 __O___________ -1 22.6000 142.900 0 1004 7 0
1949211N20143 1949 49 WP MM NOT_NAMED 1949-07-30 21:00:00 TS 22.9850 142.893 main 1352 1311 __P___________ -1 22.9850 142.893 0 1003 8 1
1949211N20143 1949 49 WP MM NOT_NAMED 1949-07-31 00:00:00 TS 23.4000 142.900 main 1311 1268 __O___________ -1 23.4000 142.900 1 29 1003 9 2
1949211N20143 1949 49 WP MM NOT_NAMED 1949-07-31 03:00:00 TS 23.8575 142.942 main 1258 1218 __P___________ -1 23.8575 142.942 1 29 1002 9 5
1949211N20143 1949 49 WP MM NOT_NAMED 1949-07-31 06:00:00 TS 24.3000 143.000 main 1218 1187 __O___________ -1 24.3000 143.000 1 29 1002 8 7
1949211N20143 1949 49 WP MM NOT_NAMED 1949-07-31 09:00:00 TS 24.6650 143.043 main 1176 1146 __P___________ -1 24.6650 143.043 1 29 1001 7 7
1949211N20143 1949 49 WP MM NOT_NAMED 1949-07-31 12:00:00 TS 25.0000 143.100 main 1146 1106 __O___________ -1 25.0000 143.100 1 29 1001 7 11
1949211N20143 1949 49 WP MM NOT_NAMED 1949-07-31 15:00:00 TS 25.3725 143.192 main 1106 1076 __P___________ -1 25.3725 143.192 1 29 1000 7 15
1949211N20143 1949 49 WP MM NOT_NAMED 1949-07-31 18:00:00 TS 25.7000 143.300 main 1076 1058 __O___________ -1 25.7000 143.300 1 29 1000 6 19
1949211N20143 1949 49 WP MM NOT_NAMED 1949-07-31 21:00:00 TS 25.9300 143.400 main 1058 1040 __P___________ -1 25.9300 143.400 1 33 999 4 24
1949211N20143 1949 49 WP MM NOT_NAMED 1949-08-01 00:00:00 TS 26.1000 143.500 main 1040 1029 __O___________ -1 26.1000 143.500 2 38 998 4 29
1949211N20143 1949 49 WP MM NOT_NAMED 1949-08-01 03:00:00 TS 26.2575 143.600 main 1022 1015 __P___________ -1 26.2575 143.600 2 38 996 4 31
1949211N20143 1949 49 WP MM NOT_NAMED 1949-08-01 06:00:00 TS 26.4000 143.700 main 1015 1004 __O___________ -1 26.4000 143.700 2 38 995 4 30
1949211N20143 1949 49 WP MM NOT_NAMED 1949-08-01 09:00:00 TS 26.5575 143.800 main 997 990 __P___________ -1 26.5575 143.800 2 43 993 4 30
1949211N20143 1949 49 WP MM NOT_NAMED 1949-08-01 12:00:00 TS 26.7000 143.900 main 990 980 __O___________ -1 26.7000 143.900 3 48 992 3 34
1949211N20143 1949 49 WP MM NOT_NAMED 1949-08-01 15:00:00 TS 26.8150 144.000 main 984 974 __P___________ -1 26.8150 144.000 3 48 991 3 42
1949211N20143 1949 49 WP MM NOT_NAMED 1949-08-01 18:00:00 TS 26.9000 144.100 main 977 977 __O___________ -1 26.9000 144.100 3 48 990 2 53
1949211N20143 1949 49 WP MM NOT_NAMED 1949-08-01 21:00:00 TS 26.9500 144.200 main 981 971 __P___________ -1 26.9500 144.200 3 48 990 2 60
1949211N20143 1949 49 WP MM NOT_NAMED 1949-08-02 00:00:00 TS 27.0000 144.300 main 975 969 __O___________ -1 27.0000 144.300 3 48 990 2 49
1949211N20143 1949 49 WP MM NOT_NAMED 1949-08-02 03:00:00 TS 27.1000 144.393 main 969 959 __P___________ -1 27.1000 144.393 3 48 990 3 42
1949211N20143 1949 49 WP MM NOT_NAMED 1949-08-02 06:00:00 TS 27.2000 144.500 main 963 963 __O___________ -1 27.2000 144.500 3 48 990 3 56
1949211N20143 1949 49 WP MM NOT_NAMED 1949-08-02 09:00:00 TS 27.2500 144.643 main 958 958 __P___________ -1 27.2500 144.643 3 48 990 3 69
1949211N20143 1949 49 WP MM NOT_NAMED 1949-08-02 12:00:00 TS 27.3000 144.800 main 967 961 __O___________ -1 27.3000 144.800 3 48 990 3 62
1949211N20143 1949 49 WP MM NOT_NAMED 1949-08-02 15:00:00 TS 27.3925 144.943 main 961 956 __P___________ -1 27.3925 144.943 3 48 990 3 53
1949211N20143 1949 49 WP MM NOT_NAMED 1949-08-02 18:00:00 TS 27.5000 145.100 main 961 956 __O___________ -1 27.5000 145.100 3 48 990 4 57
1949211N20143 1949 49 WP MM NOT_NAMED 1949-08-02 21:00:00 TS 27.5925 145.285 main 961 957 __P___________ -1 27.5925 145.285 3 48 990 4 61
1949211N20143 1949 49 WP MM NOT_NAMED 1949-08-03 00:00:00 TS 27.7000 145.500 main 962 958 __O___________ -1 27.7000 145.500 3 48 990 5 58
1949211N20143 1949 49 WP MM NOT_NAMED 1949-08-03 03:00:00 TS 27.8425 145.742 main 963 956 __P___________ -1 27.8425 145.742 3 48 990 5 56
1949211N20143 1949 49 WP MM NOT_NAMED 1949-08-03 06:00:00 TS 28.0000 146.000 main 961 957 __O___________ -1 28.0000 146.000 3 48 990 5 55
1949211N20143 1949 49 WP MM NOT_NAMED 1949-08-03 09:00:00 TS 28.1500 146.250 main 968 955 __P___________ -1 28.1500 146.250 3 48 990 5 56
1949211N20143 1949 49 WP MM NOT_NAMED 1949-08-03 12:00:00 TS 28.3000 146.500 main 960 957 __O___________ -1 28.3000 146.500 3 48 990 5 55
1949211N20143 1949 49 WP MM NOT_NAMED 1949-08-03 15:00:00 TS 28.4499 146.735 main 963 954 __P___________ -1 28.4499 146.735 3 48 990 5 56
1949211N20143 1949 49 WP MM NOT_NAMED 1949-08-03 18:00:00 TS 28.6000 147.000 main 963 960 __O___________ -1 28.6000 147.000 3 48 990 6 60
1949211N20143 1949 49 WP MM NOT_NAMED 1949-08-03 21:00:00 TS 28.7500 147.335 main 964 964 __P___________ -1 28.7500 147.335 3 48 990 7 64
1949211N20143 1949 49 WP MM NOT_NAMED 1949-08-04 00:00:00 TS 28.9000 147.700 main 981 980 __O___________ -1 28.9000 147.700 3 48 990 7 65
1949211N20143 1949 49 WP MM NOT_NAMED 1949-08-04 03:00:00 TS 29.0423 148.043 main 993 992 __P___________ -1 29.0423 148.043 3 48 990 7 64
1949211N20143 1949 49 WP MM NOT_NAMED 1949-08-04 06:00:00 TS 29.2000 148.400 main 1005 1004 __O___________ -1 29.2000 148.400 3 48 990 7 62
1949211N20143 1949 49 WP MM NOT_NAMED 1949-08-04 09:00:00 TS 29.3924 148.793 main 1018 1017 __P___________ -1 29.3924 148.793 3 48 990 8 60
1949211N20143 1949 49 WP MM NOT_NAMED 1949-08-04 12:00:00 TS 29.6000 149.200 main 1030 1030 __O___________ -1 29.6000 149.200 3 48 990 8 62
1949211N20143 1949 49 WP MM NOT_NAMED 1949-08-04 15:00:00 TS 29.7547 149.579 main 1044 1044 __P___________ -1 29.7547 149.579 3 48 990 8 60
1949211N20143 1949 49 WP MM NOT_NAMED 1949-08-04 18:00:00 TS 30.0000 150.000 main 1059 1059 __O___________ -1 30.0000 150.000 3 48 990 11 51
1949211N20143 1949 49 WP MM NOT_NAMED 1949-08-04 21:00:00 TS 30.4251 150.535 main 1070 1070 __P___________ -1 30.4251 150.535 3 43 991 14 43
1949211N20143 1949 49 WP MM NOT_NAMED 1949-08-05 00:00:00 TS 31.0000 151.100 main 1080 1076 __O___________ -1 31.0000 151.100 2 38 992 15 37
1949211N20143 1949 49 WP MM NOT_NAMED 1949-08-05 03:00:00 TS 31.6623 151.615 main 1083 1083 __P___________ -1 31.6623 151.615 2 38 993 16 31
1949211N20143 1949 49 WP MM NOT_NAMED 1949-08-05 06:00:00 TS 32.4000 152.100 main 1092 1092 __O___________ -1 32.4000 152.100 2 38 994 16 29
1949211N20143 1949 49 WP MM NOT_NAMED 1949-08-05 09:00:00 TS 33.0821 152.538 main 1100 1100 __P___________ -1 33.0821 152.538 2 38 995 17 27
1949211N20143 1949 49 WP MM NOT_NAMED 1949-08-05 12:00:00 TS 33.9000 153.000 main 1119 1117 __O___________ -1 33.9000 153.000 2 38 996 21 24
1949211N20143 1949 49 WP MM NOT_NAMED 1949-08-05 15:00:00 TS 35.0126 153.577 main 1131 1077 __P___________ -1 35.0126 153.577 2 38 997 25 23
1949211N20143 1949 49 WP MM NOT_NAMED 1949-08-05 18:00:00 TS 36.2000 154.200 main 1074 1025 __O___________ -1 36.2000 154.200 2 38 998 25 24
1949211N20143 1949 49 WP MM NOT_NAMED 1949-08-05 21:00:00 TS 37.2597 154.808 main 1015 947 __P___________ -1 37.2597 154.808 2 38 997 22 26
1949211N20143 1949 49 WP MM NOT_NAMED 1949-08-06 00:00:00 TS 38.2000 155.400 main 947 901 __O___________ -1 38.2000 155.400 2 38 997 19 28
1949211N20143 1949 49 WP MM NOT_NAMED 1949-08-06 03:00:00 TS 38.9643 155.939 main 892 858 __P___________ -1 38.9643 155.939 2 38 996 17 30
1949211N20143 1949 49 WP MM NOT_NAMED 1949-08-06 06:00:00 TS 39.7000 156.500 main 858 821 __O___________ -1 39.7000 156.500 2 38 996 19 31
1949211N20143 1949 49 WP MM NOT_NAMED 1949-08-06 09:00:00 TS 40.5851 157.185 main 817 786 __P___________ -1 40.5851 157.185 2 38 995 21 31
1949211N20143 1949 49 WP MM NOT_NAMED 1949-08-06 12:00:00 TS 41.5000 157.900 main 786 768 __O___________ -1 41.5000 157.900 2 38 995 20 30
1949211N20143 1949 49 WP MM NOT_NAMED 1949-08-06 15:00:00 TS 42.2959 158.505 main 768 759 __P___________ -1 42.2959 158.505 2 38 994 20 29
1949211N20143 1949 49 WP MM NOT_NAMED 1949-08-06 18:00:00 TS 43.2000 159.200 main 764 715 __O___________ -1 43.2000 159.200 2 38 994 25 30
1949211N20143 1949 49 WP MM NOT_NAMED 1949-08-06 21:00:00 TS 44.4358 160.193 main 718 644 __P___________ -1 44.4358 160.193 2 38 994 29 31
1949211N20143 1949 49 WP MM NOT_NAMED 1949-08-07 00:00:00 TS 45.7000 161.300 main 639 603 __O___________ -1 45.7000 161.300 2 38 994 27 32
1949211N20143 1949 49 WP MM NOT_NAMED 1949-08-07 03:00:00 TS 46.7527 162.274 main 601 584 __P___________ -1 46.7527 162.274 2 33 994 23 36
1949211N20143 1949 49 WP MM NOT_NAMED 1949-08-07 06:00:00 TS 47.6000 163.300 main 588 585 __O___________ -1 47.6000 163.300 1 29 994 21 45
1949211N20143 1949 49 WP MM NOT_NAMED 1949-08-07 09:00:00 TS 48.2553 164.536 main 595 595 __P___________ -1 48.2553 164.536 1 29 994 20 57
1949211N20143 1949 49 WP MM NOT_NAMED 1949-08-07 12:00:00 TS 48.7000 165.800 main 629 629 __O___________ -1 48.7000 165.800 1 29 995 17 65
1949211N20143 1949 49 WP MM NOT_NAMED 1949-08-07 15:00:00 TS 48.9675 166.833 main 650 650 __P___________ -1 48.9675 166.833 1 995 15 71
1949211N20143 1949 49 WP MM NOT_NAMED 1949-08-07 18:00:00 TS 49.2000 168.000 main 697 697 __O___________ -1 49.2000 168.000 0 995 19 72
1949211N20143 1949 49 WP MM NOT_NAMED 1949-08-07 21:00:00 TS 49.5567 169.661 main 764 764 __P___________ -1 49.5567 169.661 0 995 24 71
1949211N20143 1949 49 WP MM NOT_NAMED 1949-08-08 00:00:00 TS 50.0000 171.500 main 820 820 __O___________ -1 50.0000 171.500 0 995 25 70
1949211N20143 1949 49 WP MM NOT_NAMED 1949-08-08 03:00:00 TS 50.4233 173.304 main 889 889 __P___________ -1 50.4233 173.304 0 995 24 63
1949211N20143 1949 49 WP MM NOT_NAMED 1949-08-08 06:00:00 TS 51.1000 174.900 main 940 932 __O___________ -1 51.1000 174.900 0 995 25 44
1949211N20143 1949 49 WP MM NOT_NAMED 1949-08-08 09:00:00 TS 52.2170 176.104 main 924 816 __P___________ -1 52.2170 176.104 0 995 28 28
1949211N20143 1949 49 WP MM NOT_NAMED 1949-08-08 12:00:00 TS 53.6000 177.100 main 809 __O___________ -1 53.6000 177.100 0 995 30 23

デジタル台風データ・検索

IBTrACS Databaseについて

本データベースは、米国NOAAが公開する1842年以降の世界の熱帯低気圧のベストトラックデータアーカイブInternational Best Track Archive for Climate Stewardship (IBTrACS)を、ウェブで閲覧しやすい形式に変換したものです。

最終更新日:2021-10-21